Time;durP1;ratioP1;P1;durP2;ratioP2;P2;SDS_P1;SDS_P2;PMS_P1;PMS_P2;Temp;Humidity;BMP_temperature;BMP_pressure;BME280_temperature;BME280_humidity;BME280_pressure;Samples;Min_cycle;Max_cycle;Signal;HPM_P1;HPM_P2
2022/09/18 00:01:15;;;;;;;27.17;25.52;;;;;;;15.40;59.45;101583.41;5032083;28;20296;-78
2022/09/18 00:03:41;;;;;;;28.20;26.27;;;;;;;15.39;59.50;101587.19;5032735;28;20035;-77
2022/09/18 00:06:20;;;;;;;28.73;27.17;;;;;;;15.39;59.57;101581.75;5014091;28;20068;-78
2022/09/18 00:08:48;;;;;;;27.98;26.40;;;;;;;15.39;59.25;101576.28;5036458;28;20036;-77
2022/09/18 00:11:16;;;;;;;27.08;25.58;;;;;;;15.38;59.51;101575.47;5037526;28;20478;-76
2022/09/18 00:13:42;;;;;;;26.58;25.00;;;;;;;15.39;59.73;101579.00;5041201;28;20564;-76
2022/09/18 00:16:10;;;;;;;26.90;25.30;;;;;;;15.38;59.37;101577.38;5027921;28;20042;-76
2022/09/18 00:18:35;;;;;;;28.80;27.10;;;;;;;15.36;59.47;101570.28;5014601;28;20033;-76
2022/09/18 00:21:11;;;;;;;26.70;25.23;;;;;;;15.36;59.52;101553.13;5030449;28;20033;-77
2022/09/18 00:23:36;;;;;;;28.23;26.60;;;;;;;15.36;59.58;101566.72;5018166;28;20462;-77
2022/09/18 00:26:04;;;;;;;27.50;26.00;;;;;;;15.35;59.76;101557.75;5025993;28;20038;-77
2022/09/18 00:28:29;;;;;;;28.25;26.55;;;;;;;15.35;59.71;101559.66;5012240;28;20037;-78
2022/09/18 00:30:55;;;;;;;28.35;26.02;;;;;;;15.35;59.74;101562.38;5011774;28;20398;-75
2022/09/18 00:33:21;;;;;;;28.27;26.60;;;;;;;15.33;59.80;101554.47;5026329;28;20091;-76
2022/09/18 00:35:46;;;;;;;26.98;25.60;;;;;;;15.33;59.61;101557.19;5031450;28;20045;-76
2022/09/18 00:38:11;;;;;;;27.80;26.17;;;;;;;15.33;59.56;101550.91;5027128;28;21042;-76
2022/09/18 00:40:37;;;;;;;29.05;27.40;;;;;;;15.33;59.57;101559.09;5023926;28;20048;-77
2022/09/18 00:43:36;;;;;;;27.05;25.65;;;;;;;15.32;59.99;101569.16;5027361;28;20042;-77
2022/09/18 00:46:19;;;;;;;27.35;25.40;;;;;;;15.33;59.98;101580.88;5011063;28;20042;-77
2022/09/18 00:49:03;;;;;;;28.02;26.30;;;;;;;15.31;59.80;101575.66;5028652;28;20036;-76
2022/09/18 00:51:32;;;;;;;28.25;26.75;;;;;;;15.31;59.72;101572.13;5026939;28;20034;-77
2022/09/18 00:54:13;;;;;;;;;;;;;;;15.30;59.76;101562.31;5030276;28;20037;-76
2022/09/18 00:56:39;;;;;;;26.95;25.35;;;;;;;15.28;59.58;101565.28;5014754;28;19925;-76
2022/09/18 00:59:06;;;;;;;26.50;24.85;;;;;;;15.28;59.86;101557.13;5033589;28;20029;-76
2022/09/18 01:01:32;;;;;;;28.00;26.30;;;;;;;15.28;59.66;101554.41;5035154;28;20052;-78
2022/09/18 01:03:57;;;;;;;25.95;24.45;;;;;;;15.27;59.68;101560.94;5035689;28;20128;-78
2022/09/18 01:06:48;;;;;;;26.92;25.33;;;;;;;15.27;59.78;101555.50;5017536;28;20040;-78
2022/09/18 01:09:26;;;;;;;26.83;25.13;;;;;;;15.26;59.72;101556.53;5035105;28;20037;-78
2022/09/18 01:12:14;;;;;;;26.35;24.95;;;;;;;15.26;60.05;101555.72;5027475;28;20401;-78
2022/09/18 01:15:04;;;;;;;27.90;26.30;;;;;;;15.25;60.05;101563.06;5046621;28;20082;-77
2022/09/18 01:17:40;;;;;;;27.98;25.88;;;;;;;15.24;59.58;101555.97;5035287;28;20033;-77
2022/09/18 01:20:33;;;;;;;28.30;26.80;;;;;;;15.24;59.69;101552.44;5033093;28;20128;-77
2022/09/18 01:23:23;;;;;;;27.90;26.10;;;;;;;15.24;59.75;101564.13;5030226;28;20116;-77
2022/09/18 01:26:00;;;;;;;26.70;24.73;;;;;;;15.22;59.86;101560.88;5044830;28;20040;-76
2022/09/18 01:28:43;;;;;;;26.73;25.33;;;;;;;15.21;59.94;101552.94;5020626;28;20107;-76
2022/09/18 01:31:17;;;;;;;27.00;25.30;;;;;;;15.20;59.90;101560.28;5015638;28;20061;-78
2022/09/18 01:33:51;;;;;;;27.00;25.30;;;;;;;15.21;59.86;101556.50;5029669;28;20037;-76
2022/09/18 01:36:20;;;;;;;25.98;24.42;;;;;;;15.19;59.92;101550.47;5023267;28;20025;-77
2022/09/18 01:38:55;;;;;;;;;;;;;;;15.20;59.63;101551.31;5015419;28;20044;-77
2022/09/18 01:41:23;;;;;;;25.67;24.20;;;;;;;15.18;59.61;101551.56;5023740;28;19913;-77
2022/09/18 01:44:01;;;;;;;25.73;24.40;;;;;;;15.17;59.99;101552.66;5044058;28;20037;-76
2022/09/18 01:46:28;;;;;;;25.65;24.08;;;;;;;15.17;59.86;101543.63;5034980;28;20105;-76
2022/09/18 01:49:05;;;;;;;27.00;25.40;;;;;;;15.17;59.78;101547.19;5032536;28;20034;-76
2022/09/18 01:51:38;;;;;;;26.38;25.02;;;;;;;15.16;59.75;101553.69;5035196;28;20030;-76
2022/09/18 01:54:14;;;;;;;26.52;25.13;;;;;;;15.17;59.84;101546.34;5026235;28;20037;-76
2022/09/18 01:56:49;;;;;;;28.05;26.23;;;;;;;15.16;59.90;101545.53;5027009;28;20072;-76
2022/09/18 01:59:21;;;;;;;26.02;24.73;;;;;;;15.16;59.90;101548.25;5024290;28;20119;-75
2022/09/18 02:01:48;;;;;;;28.00;25.92;;;;;;;15.15;60.16;101550.16;5014788;28;20073;-75
2022/09/18 02:04:20;;;;;;;29.15;27.08;;;;;;;15.15;59.98;101550.16;4997801;28;20419;-76
2022/09/18 02:06:59;;;;;;;29.17;27.13;;;;;;;15.16;60.28;101550.97;5023956;28;20052;-76
2022/09/18 02:09:25;;;;;;;;;;;;;;;15.15;60.01;101542.00;5032726;28;20030;-76
2022/09/18 02:11:53;;;;;;;25.35;23.92;;;;;;;15.14;59.85;101544.97;5027130;28;19917;-77
2022/09/18 02:14:26;;;;;;;25.95;24.33;;;;;;;15.12;59.80;101542.50;5034232;28;20059;-77
2022/09/18 02:17:04;;;;;;;25.73;23.60;;;;;;;15.12;60.22;101538.97;5033280;28;20474;-77
2022/09/18 02:19:35;;;;;;;25.75;23.45;;;;;;;15.12;59.93;101538.97;5030343;28;20034;-77
2022/09/18 02:22:06;;;;;;;26.27;24.52;;;;;;;15.11;59.89;101532.69;5014564;28;20026;-76
2022/09/18 02:24:35;;;;;;;26.50;24.73;;;;;;;15.11;60.25;101531.88;5022835;28;20524;-76
2022/09/18 02:27:03;;;;;;;25.83;24.33;;;;;;;15.11;60.17;101537.31;5049310;28;20036;-77
2022/09/18 02:29:30;;;;;;;25.42;24.05;;;;;;;15.11;60.18;101538.13;5014761;28;20062;-77
2022/09/18 02:31:58;;;;;;;26.13;24.58;;;;;;;15.11;60.44;101537.31;5012723;28;20041;-78
2022/09/18 02:34:23;;;;;;;25.20;23.77;;;;;;;15.10;60.35;101538.41;5013218;28;20034;-76
2022/09/18 02:37:07;;;;;;;27.55;26.00;;;;;;;15.10;60.43;101530.25;5011077;28;20072;-76
2022/09/18 02:40:18;;;;;;;25.92;24.33;;;;;;;15.09;60.24;101521.25;5028690;28;20380;-80
2022/09/18 02:42:55;;;;;;;27.13;25.05;;;;;;;15.09;59.89;101523.13;5012513;28;20122;-76
2022/09/18 02:45:59;;;;;;;26.02;24.73;;;;;;;15.08;60.22;101527.75;5014305;28;20080;-76
2022/09/18 02:48:53;;;;;;;25.38;23.88;;;;;;;15.07;60.44;101526.13;5007027;28;20045;-76
2022/09/18 02:51:42;;;;;;;26.45;25.13;;;;;;;15.05;60.51;101517.38;5025615;28;20064;-76
2022/09/18 02:54:18;;;;;;;26.27;24.80;;;;;;;15.05;60.20;101516.56;5014084;28;20040;-77
2022/09/18 02:56:58;;;;;;;26.55;25.13;;;;;;;15.04;59.91;101515.72;5029990;28;20030;-77
2022/09/18 02:59:40;;;;;;;25.58;23.95;;;;;;;15.04;60.19;101504.03;5013704;28;20025;-76
2022/09/18 03:02:07;;;;;;;26.05;24.67;;;;;;;15.04;60.02;101510.28;5033996;28;20029;-77
2022/09/18 03:04:33;;;;;;;25.27;24.05;;;;;;;15.03;60.12;101505.94;5012695;28;20037;-76
2022/09/18 03:06:58;;;;;;;26.58;25.27;;;;;;;15.03;60.29;101503.22;5024717;28;20033;-76
2022/09/18 03:09:24;;;;;;;26.13;24.83;;;;;;;15.03;60.25;101505.94;5015710;28;20351;-77
2022/09/18 03:11:50;;;;;;;26.88;25.27;;;;;;;15.03;60.49;101505.94;5032515;28;20033;-77
2022/09/18 03:14:15;;;;;;;26.10;24.70;;;;;;;15.03;60.30;101500.50;5012655;28;20037;-77
2022/09/18 03:16:40;;;;;;;26.67;25.05;;;;;;;15.04;60.13;101502.13;5026031;28;20055;-77
2022/09/18 03:19:06;;;;;;;26.10;24.70;;;;;;;15.03;60.36;101499.69;5021990;28;20155;-77
2022/09/18 03:21:31;;;;;;;24.90;23.65;;;;;;;15.03;60.17;101503.22;5031709;28;20042;-77
2022/09/18 03:23:57;;;;;;;25.85;24.55;;;;;;;15.03;60.25;101513.28;5014679;28;20262;-77
2022/09/18 03:26:22;;;;;;;26.20;24.77;;;;;;;15.02;60.09;101512.47;5024215;28;20156;-77
2022/09/18 03:28:48;;;;;;;26.77;25.17;;;;;;;15.02;60.39;101511.63;5032403;28;20048;-77
2022/09/18 03:31:13;;;;;;;27.33;25.80;;;;;;;15.00;60.07;101503.72;5020180;28;20141;-76
2022/09/18 03:33:39;;;;;;;26.75;25.25;;;;;;;15.01;60.29;101499.91;5012780;28;20466;-76
2022/09/18 03:36:05;;;;;;;25.83;24.10;;;;;;;15.00;60.04;101495.56;5024370;28;20049;-77
2022/09/18 03:38:32;;;;;;;26.58;25.17;;;;;;;15.00;60.17;101495.56;5025334;28;20068;-77
2022/09/18 03:40:58;;;;;;;27.73;25.83;;;;;;;15.00;60.25;101492.84;5042325;28;20041;-78
2022/09/18 03:43:24;;;;;;;25.98;24.50;;;;;;;14.99;60.36;101485.75;5028675;28;20049;-78
2022/09/18 03:45:50;;;;;;;28.27;26.25;;;;;;;15.00;60.18;101483.88;5012680;28;20033;-78
2022/09/18 03:48:15;;;;;;;26.83;25.00;;;;;;;14.99;60.44;101483.03;5013552;28;20040;-78
2022/09/18 03:50:41;;;;;;;27.25;25.50;;;;;;;14.98;60.28;101484.09;5030704;28;20041;-78
2022/09/18 03:53:07;;;;;;;25.33;24.02;;;;;;;14.99;60.21;101474.84;5020719;28;20030;-78
2022/09/18 03:55:34;;;;;;;25.83;24.52;;;;;;;14.98;60.17;101483.28;5018014;28;20057;-78
2022/09/18 03:58:00;;;;;;;25.92;24.15;;;;;;;14.99;60.20;101476.75;5030985;28;20557;-78
2022/09/18 04:00:25;;;;;;;26.85;25.35;;;;;;;14.98;60.05;101472.41;5031078;28;20052;-76
2022/09/18 04:02:51;;;;;;;27.42;24.83;;;;;;;14.97;60.11;101477.03;5031845;28;20030;-76
2022/09/18 04:05:16;;;;;;;25.40;24.10;;;;;;;14.98;60.25;101473.22;5034825;28;20034;-76
2022/09/18 04:07:41;;;;;;;25.70;24.50;;;;;;;14.97;60.30;101468.88;5026522;28;20072;-77
2022/09/18 04:10:07;;;;;;;25.52;24.23;;;;;;;14.97;60.24;101465.31;5017885;28;20068;-79
2022/09/18 04:12:33;;;;;;;25.30;23.67;;;;;;;14.96;60.31;101477.28;5012610;28;20040;-77
2022/09/18 04:14:58;;;;;;;26.48;24.98;;;;;;;14.97;60.26;101476.19;5012050;28;20022;-78
2022/09/18 04:17:24;;;;;;;26.95;25.15;;;;;;;14.96;60.10;101474.56;5018540;28;20088;-78
2022/09/18 04:19:49;;;;;;;25.70;24.30;;;;;;;14.95;60.02;101467.47;5019985;28;20033;-78
2022/09/18 04:22:15;;;;;;;26.33;24.80;;;;;;;14.95;60.18;101472.94;4995475;28;20029;-77
2022/09/18 04:24:41;;;;;;;25.38;23.70;;;;;;;14.94;60.25;101474.78;5021714;28;20037;-77
2022/09/18 04:27:06;;;;;;;25.02;23.75;;;;;;;14.92;60.12;101469.63;5012074;28;20125;-77
2022/09/18 04:29:32;;;;;;;25.90;24.50;;;;;;;14.92;60.18;101474.25;5033802;28;20045;-77
2022/09/18 04:31:57;;;;;;;26.08;24.35;;;;;;;14.92;60.19;101474.25;5000502;28;20052;-76
2022/09/18 04:34:23;;;;;;;26.65;25.02;;;;;;;14.92;60.19;101483.22;5024838;28;20041;-77
2022/09/18 04:36:48;;;;;;;25.73;24.33;;;;;;;14.92;60.50;101487.84;5006761;28;20030;-76
2022/09/18 04:39:13;;;;;;;24.83;23.52;;;;;;;14.92;60.22;101496.00;5032522;28;20462;-76
2022/09/18 04:41:39;;;;;;;25.63;24.27;;;;;;;14.92;60.30;101501.47;5013413;28;20037;-77
2022/09/18 04:44:05;;;;;;;25.33;24.05;;;;;;;14.90;60.06;101495.44;5012328;28;20049;-77
2022/09/18 04:46:30;;;;;;;25.88;24.55;;;;;;;14.91;60.16;101497.06;5022541;28;20042;-77
2022/09/18 04:48:55;;;;;;;25.83;24.40;;;;;;;14.90;60.42;101492.72;5019050;28;20417;-77
2022/09/18 04:51:21;;;;;;;26.02;24.38;;;;;;;14.90;60.21;101490.00;5026596;28;20084;-77
2022/09/18 04:53:46;;;;;;;25.13;23.73;;;;;;;14.89;59.78;101478.31;5025432;28;20049;-78
2022/09/18 04:56:12;;;;;;;26.88;25.10;;;;;;;14.89;60.20;101480.19;5014086;28;20030;-78
2022/09/18 04:58:37;;;;;;;26.75;25.02;;;;;;;14.88;60.15;101473.91;5029847;28;20060;-79
2022/09/18 05:01:03;;;;;;;27.80;26.00;;;;;;;14.88;60.46;101478.53;5028789;28;20029;-76
2022/09/18 05:03:29;;;;;;;25.52;24.20;;;;;;;14.87;60.14;101480.44;5030567;28;20098;-77
2022/09/18 05:05:55;;;;;;;26.45;25.05;;;;;;;14.86;60.20;101477.97;5018011;28;20034;-77
2022/09/18 05:08:21;;;;;;;26.48;24.38;;;;;;;14.88;60.10;101486.72;5002339;28;20036;-78
2022/09/18 05:10:46;;;;;;;26.13;24.70;;;;;;;14.87;60.52;101485.06;5031408;28;20531;-79
2022/09/18 05:13:12;;;;;;;26.95;25.45;;;;;;;14.87;60.48;101482.34;5029300;28;20112;-79
2022/09/18 05:15:37;;;;;;;26.00;24.60;;;;;;;14.86;60.25;101486.94;5031876;28;20090;-77
2022/09/18 05:18:05;;;;;;;27.50;25.77;;;;;;;14.85;60.49;101485.31;4994131;28;20037;-79
2022/09/18 05:20:33;;;;;;;24.92;23.50;;;;;;;14.85;60.50;101488.03;5012785;28;20096;-79
2022/09/18 05:22:58;;;;;;;25.83;24.20;;;;;;;14.86;60.20;101497.00;5031880;28;20373;-78
2022/09/18 05:25:27;;;;;;;25.45;24.15;;;;;;;14.85;60.31;101500.81;5012288;28;20466;-78
2022/09/18 05:27:58;;;;;;;26.65;25.10;;;;;;;14.85;60.32;101488.03;5011093;28;20095;-78
2022/09/18 05:30:25;;;;;;;26.42;24.90;;;;;;;14.85;60.42;101492.66;5022893;28;20053;-78
2022/09/18 05:33:01;;;;;;;26.13;24.50;;;;;;;14.85;60.18;101492.66;5030251;28;20120;-79
2022/09/18 05:35:29;;;;;;;23.85;22.65;;;;;;;14.85;60.32;101496.19;5022255;28;20033;-79
2022/09/18 05:37:55;;;;;;;25.45;24.02;;;;;;;14.83;60.58;101492.91;5053744;28;20034;-79
2022/09/18 05:40:23;;;;;;;25.77;24.10;;;;;;;14.85;60.35;101488.03;5030520;28;20040;-78
2022/09/18 05:42:51;;;;;;;24.60;23.40;;;;;;;14.84;60.53;101497.28;5035236;28;20037;-79
2022/09/18 05:45:17;;;;;;;24.83;23.52;;;;;;;14.84;60.14;101485.56;5033626;28;20057;-78
2022/09/18 05:47:42;;;;;;;23.95;22.73;;;;;;;14.84;60.28;101482.84;5038089;28;20087;-78
2022/09/18 05:50:09;;;;;;;27.95;26.02;;;;;;;14.84;60.28;101485.56;5047624;28;20048;-79
2022/09/18 05:52:34;;;;;;;25.05;23.52;;;;;;;14.83;60.32;101479.31;5031971;28;20048;-79
2022/09/18 05:55:00;;;;;;;27.65;26.15;;;;;;;14.83;60.78;101476.56;5036177;28;20421;-79
2022/09/18 05:57:26;;;;;;;26.67;25.20;;;;;;;14.84;60.38;101471.97;5017035;28;20099;-78
2022/09/18 05:59:51;;;;;;;25.10;23.60;;;;;;;14.83;60.14;101473.03;5019353;28;20474;-78
2022/09/18 06:02:17;;;;;;;23.77;22.48;;;;;;;14.83;60.07;101473.03;5028928;28;20038;-79
2022/09/18 06:04:42;;;;;;;26.52;24.40;;;;;;;14.82;60.48;101466.78;5028050;28;20449;-78
2022/09/18 06:07:07;;;;;;;25.63;23.73;;;;;;;14.82;60.19;101476.84;5033349;28;20493;-78
2022/09/18 06:09:33;;;;;;;25.73;23.88;;;;;;;14.81;60.44;101481.44;5032645;28;20477;-78
2022/09/18 06:11:58;;;;;;;25.67;23.73;;;;;;;14.82;60.50;101479.56;5033809;28;20060;-78
2022/09/18 06:14:24;;;;;;;24.25;23.05;;;;;;;14.81;60.49;101475.19;5038126;28;20116;-80
2022/09/18 06:16:49;;;;;;;23.48;22.27;;;;;;;14.81;60.57;101475.19;5019739;28;20047;-78
2022/09/18 06:19:15;;;;;;;24.23;22.92;;;;;;;14.81;60.79;101472.47;5027432;28;20500;-77
2022/09/18 06:21:40;;;;;;;25.70;24.30;;;;;;;14.81;60.30;101469.75;5025184;28;20385;-78
2022/09/18 06:24:06;;;;;;;26.80;25.23;;;;;;;14.81;60.33;101467.03;5032799;28;20096;-79
2022/09/18 06:26:32;;;;;;;26.58;24.65;;;;;;;14.81;60.63;101461.59;5033825;28;20199;-79
2022/09/18 06:28:57;;;;;;;25.45;24.00;;;;;;;14.81;60.48;101475.19;5032769;28;20034;-77
2022/09/18 06:31:22;;;;;;;25.58;23.85;;;;;;;14.82;60.52;101474.13;5032683;28;20049;-79
2022/09/18 06:33:48;;;;;;;24.48;23.27;;;;;;;14.80;60.29;101470.84;5032852;28;20053;-78
2022/09/18 06:36:13;;;;;;;25.08;23.67;;;;;;;14.80;60.70;101466.22;5024077;28;20049;-80
2022/09/18 06:38:39;;;;;;;25.10;23.83;;;;;;;14.80;60.54;101468.13;5022749;28;20099;-76
2022/09/18 06:41:05;;;;;;;25.83;24.23;;;;;;;14.81;60.57;101467.03;5013668;28;20414;-78
2022/09/18 06:43:30;;;;;;;26.27;24.42;;;;;;;14.80;60.44;101466.22;5004218;28;20057;-78
2022/09/18 06:45:57;;;;;;;24.27;22.67;;;;;;;14.81;60.35;101475.19;5031574;28;20168;-79
2022/09/18 06:48:23;;;;;;;24.90;23.40;;;;;;;14.80;60.39;101470.84;5033308;28;20036;-79
2022/09/18 06:50:57;;;;;;;23.42;22.27;;;;;;;14.79;60.81;101466.47;5036056;28;20119;-78
2022/09/18 06:53:23;;;;;;;23.42;22.02;;;;;;;14.79;60.60;101464.59;5035701;28;20021;-78
2022/09/18 06:55:49;;;;;;;24.17;22.98;;;;;;;14.79;60.43;101464.59;5023621;28;20033;-78
2022/09/18 06:58:16;;;;;;;26.23;24.83;;;;;;;14.79;60.45;101464.59;5012057;28;20068;-78
2022/09/18 07:00:43;;;;;;;25.90;24.23;;;;;;;14.80;60.53;101462.69;5031473;28;20104;-77
2022/09/18 07:03:09;;;;;;;26.77;25.15;;;;;;;14.81;60.86;101458.88;5015339;28;20091;-76
2022/09/18 07:05:40;;;;;;;24.45;22.73;;;;;;;14.80;60.53;101466.22;5035637;28;20488;-77
2022/09/18 07:08:05;;;;;;;25.73;24.33;;;;;;;14.80;60.65;101455.34;5027211;28;20033;-77
2022/09/18 07:10:31;;;;;;;24.92;23.33;;;;;;;14.80;60.66;101459.97;5012579;28;20088;-77
2022/09/18 07:12:58;;;;;;;25.42;24.13;;;;;;;14.80;61.07;101455.34;5012070;28;20417;-78
2022/09/18 07:15:24;;;;;;;25.55;24.25;;;;;;;14.82;60.91;101455.09;5035822;28;20033;-76
2022/09/18 07:17:51;;;;;;;24.77;23.50;;;;;;;14.82;60.70;101450.47;5016648;28;20084;-77
2022/09/18 07:20:18;;;;;;;25.75;24.15;;;;;;;14.82;60.59;101442.31;5012778;28;20469;-78
2022/09/18 07:22:51;;;;;;;24.65;23.45;;;;;;;14.82;60.93;101450.47;5028227;28;20080;-77
2022/09/18 07:25:16;;;;;;;27.85;25.55;;;;;;;14.83;60.47;101437.69;5024474;28;20022;-75
2022/09/18 07:27:42;;;;;;;26.63;24.90;;;;;;;14.83;60.93;101452.09;5028617;28;20472;-76
2022/09/18 07:30:08;;;;;;;25.20;23.63;;;;;;;14.83;60.90;101452.09;5031778;28;20115;-77
2022/09/18 07:32:34;;;;;;;25.48;24.08;;;;;;;14.83;60.83;101443.13;5030946;28;20038;-78
2022/09/18 07:34:59;;;;;;;24.98;23.25;;;;;;;14.84;60.90;101444.75;5035964;28;20037;-78
2022/09/18 07:37:25;;;;;;;25.35;23.67;;;;;;;14.85;61.10;101440.97;5033311;28;20394;-79
2022/09/18 07:39:50;;;;;;;26.30;24.80;;;;;;;14.84;61.35;101437.44;5005910;28;20095;-79
2022/09/18 07:42:16;;;;;;;26.98;24.98;;;;;;;14.84;60.90;101442.88;5030744;28;20045;-79
2022/09/18 07:44:41;;;;;;;24.48;23.10;;;;;;;14.85;61.13;101449.97;5014822;28;20456;-79
2022/09/18 07:47:06;;;;;;;24.92;23.40;;;;;;;14.85;60.88;101443.69;5016493;28;20044;-77
2022/09/18 07:49:32;;;;;;;25.63;24.13;;;;;;;14.85;61.26;101441.78;5031053;28;20037;-79
2022/09/18 07:51:58;;;;;;;24.75;23.55;;;;;;;14.87;61.47;101449.72;5031089;28;20437;-78
2022/09/18 07:54:23;;;;;;;25.75;24.00;;;;;;;14.86;61.04;101440.72;5031669;28;20033;-78
2022/09/18 07:56:48;;;;;;;24.77;23.05;;;;;;;14.87;61.47;101445.09;5019295;28;20382;-78
2022/09/18 07:59:14;;;;;;;27.17;25.63;;;;;;;14.87;61.55;101434.22;5011115;28;20371;-77
2022/09/18 08:01:39;;;;;;;25.63;24.02;;;;;;;14.88;61.38;101440.47;5038633;28;20034;-78
2022/09/18 08:04:05;;;;;;;25.67;23.83;;;;;;;14.89;61.45;101445.66;5002434;28;20436;-80
2022/09/18 08:06:31;;;;;;;25.45;23.58;;;;;;;14.89;61.24;101442.94;5040778;28;20108;-78
2022/09/18 08:08:57;;;;;;;24.02;22.75;;;;;;;14.89;61.65;101436.66;5031823;28;20029;-78
2022/09/18 08:11:22;;;;;;;26.50;24.73;;;;;;;14.91;61.52;101435.31;5015980;28;20037;-78
2022/09/18 08:13:48;;;;;;;23.67;22.48;;;;;;;14.91;61.67;101435.31;4995068;28;20465;-78
2022/09/18 08:16:14;;;;;;;25.63;24.20;;;;;;;14.92;61.72;101447.88;5032771;28;20038;-78
2022/09/18 08:18:39;;;;;;;24.67;23.45;;;;;;;14.92;61.34;101449.78;5013434;28;20029;-79
2022/09/18 08:21:05;;;;;;;25.08;23.88;;;;;;;14.93;61.46;101454.94;5030107;28;20374;-78
2022/09/18 08:23:30;;;;;;;25.02;23.63;;;;;;;14.95;61.53;101451.97;5013750;28;20068;-77
2022/09/18 08:25:59;;;;;;;24.00;22.80;;;;;;;14.94;61.17;101455.75;5030612;28;20037;-76
2022/09/18 08:28:24;;;;;;;26.23;24.83;;;;;;;14.96;61.13;101444.63;5021548;28;20056;-76
2022/09/18 08:30:50;;;;;;;24.98;23.67;;;;;;;14.98;61.07;101456.09;5010942;28;20482;-77
2022/09/18 08:33:15;;;;;;;26.90;25.10;;;;;;;14.97;61.26;101452.56;5030421;28;20392;-77
2022/09/18 08:35:41;;;;;;;25.05;23.30;;;;;;;14.99;61.42;101450.38;5029110;28;20060;-76
2022/09/18 08:38:09;;;;;;;26.17;24.67;;;;;;;14.99;61.20;101450.38;5002894;28;20029;-77
2022/09/18 08:40:57;;;;;;;26.52;25.00;;;;;;;15.00;61.42;101460.19;5029670;28;20033;-79
2022/09/18 08:43:37;;;;;;;25.85;24.35;;;;;;;15.01;61.28;101450.13;5012065;28;20030;-76
2022/09/18 08:46:07;;;;;;;24.70;23.30;;;;;;;15.02;61.33;101443.59;5011898;28;20536;-78
2022/09/18 08:48:57;;;;;;;26.63;24.80;;;;;;;15.02;61.53;101460.78;5015051;28;20060;-78
2022/09/18 08:51:52;;;;;;;26.50;24.48;;;;;;;15.02;61.35;101458.06;5027373;28;20044;-78
2022/09/18 08:54:56;;;;;;;26.73;25.23;;;;;;;15.03;61.42;101456.16;5010766;28;20032;-79
2022/09/18 08:57:48;;;;;;;27.52;25.50;;;;;;;15.02;61.44;101458.06;5010397;28;20045;-80
2022/09/18 09:00:36;;;;;;;25.40;23.95;;;;;;;15.04;61.59;101465.94;5015380;28;20100;-80
2022/09/18 09:03:21;;;;;;;26.17;24.10;;;;;;;15.03;61.70;101467.84;5048511;28;20086;-79
2022/09/18 09:05:55;;;;;;;24.67;23.33;;;;;;;15.04;61.45;101464.03;5012061;28;20026;-79
2022/09/18 09:09:01;;;;;;;24.98;23.63;;;;;;;15.05;61.24;101462.97;5011860;28;20058;-79
2022/09/18 09:11:59;;;;;;;27.70;25.67;;;;;;;15.06;61.35;101461.88;5050345;28;20072;-78
2022/09/18 09:14:37;;;;;;;24.60;23.02;;;;;;;15.07;61.53;101460.00;5034112;28;20441;-79
2022/09/18 09:17:48;;;;;;;26.55;25.05;;;;;;;15.06;61.57;101458.34;5032006;28;20053;-79
2022/09/18 09:20:46;;;;;;;26.30;24.58;;;;;;;15.07;61.10;101457.28;5040842;28;20100;-80
2022/09/18 09:23:29;;;;;;;25.15;23.58;;;;;;;15.07;61.51;101466.25;5036297;28;20064;-77
2022/09/18 09:26:04;;;;;;;26.35;24.45;;;;;;;15.08;61.34;101453.47;5030078;28;20037;-79
2022/09/18 09:29:08;;;;;;;25.95;23.63;;;;;;;15.08;61.20;101462.47;5036520;28;20029;-79
2022/09/18 09:31:47;;;;;;;24.42;23.13;;;;;;;15.10;61.43;101456.78;5014563;28;20073;-78
2022/09/18 09:34:12;;;;;;;24.00;22.50;;;;;;;15.10;61.11;101467.66;5024430;28;20065;-79
2022/09/18 09:36:41;;;;;;;24.60;23.30;;;;;;;15.11;61.48;101466.56;5031261;28;20512;-79
2022/09/18 09:39:28;;;;;;;24.75;23.25;;;;;;;15.13;61.51;101461.69;5034549;28;20033;-79
2022/09/18 09:42:04;;;;;;;24.70;23.50;;;;;;;15.12;61.51;101466.31;5034886;28;20112;-78
2022/09/18 09:44:49;;;;;;;26.02;24.65;;;;;;;15.13;61.45;101462.50;5029076;28;20041;-78
2022/09/18 09:47:27;;;;;;;25.00;23.60;;;;;;;15.14;61.47;101461.44;5015252;28;20053;-79
2022/09/18 09:50:07;;;;;;;24.87;23.57;;;;;;;15.15;61.80;101454.09;5029734;28;20390;-79
2022/09/18 09:52:34;;;;;;;26.20;24.60;;;;;;;15.15;61.50;101449.47;5044076;28;20372;-79
2022/09/18 09:55:20;;;;;;;26.23;24.40;;;;;;;15.15;61.66;101444.03;5032775;28;20041;-79
2022/09/18 09:58:05;;;;;;;24.88;23.58;;;;;;;15.17;62.17;101449.22;5015780;28;20029;-79
2022/09/18 10:00:42;;;;;;;26.13;24.63;;;;;;;15.17;61.82;101434.78;5020110;28;20033;-80
2022/09/18 10:03:16;;;;;;;24.60;23.30;;;;;;;15.17;61.59;101432.06;5034667;28;20429;-81
2022/09/18 10:06:13;;;;;;;23.10;21.92;;;;;;;15.18;61.86;101428.28;5030237;28;20048;-80
2022/09/18 10:09:02;;;;;;;26.85;25.55;;;;;;;15.17;62.01;101438.34;5029814;28;20049;-79
2022/09/18 10:11:28;;;;;;;25.50;24.10;;;;;;;15.18;61.64;101433.72;5036564;28;20037;-80
2022/09/18 10:14:11;;;;;;;24.85;23.42;;;;;;;15.19;61.90;101435.34;5000455;28;20041;-81
2022/09/18 10:16:41;;;;;;;25.17;23.77;;;;;;;15.20;61.84;101437.00;5016806;28;20034;-80
2022/09/18 10:19:12;;;;;;;26.20;24.80;;;;;;;15.19;62.16;101438.88;5038584;28;20033;-79
2022/09/18 10:21:41;;;;;;;26.02;24.73;;;;;;;15.21;62.22;101444.09;5013937;28;20033;-79
2022/09/18 10:24:31;;;;;;;25.35;23.63;;;;;;;15.21;62.36;101439.47;5031902;28;20040;-80
2022/09/18 10:27:00;;;;;;;26.23;24.73;;;;;;;15.21;62.18;101444.91;5041200;28;20040;-81
2022/09/18 10:29:26;;;;;;;28.30;26.35;;;;;;;15.22;62.26;101445.72;5029795;28;20049;-80
2022/09/18 10:32:00;;;;;;;27.10;25.45;;;;;;;15.24;62.46;101435.41;5015241;28;20387;-79
2022/09/18 10:34:43;;;;;;;26.20;24.80;;;;;;;15.25;62.16;101446.03;5027893;28;20073;-80
2022/09/18 10:37:28;;;;;;;25.13;23.63;;;;;;;15.27;62.62;101448.50;5040249;28;20037;-79
2022/09/18 10:39:59;;;;;;;25.42;24.13;;;;;;;15.30;62.44;101448.81;5028348;28;20044;-80
2022/09/18 10:42:27;;;;;;;26.67;25.17;;;;;;;15.30;62.05;101434.41;5014230;28;20481;-81
2022/09/18 10:45:01;;;;;;;26.27;24.85;;;;;;;15.32;62.35;101432.22;5024668;28;20033;-79
2022/09/18 10:47:36;;;;;;;25.27;23.75;;;;;;;15.33;62.03;101431.16;5047692;28;20431;-79
2022/09/18 10:50:05;;;;;;;26.27;24.50;;;;;;;15.34;62.20;101419.16;5038317;28;20065;-80
2022/09/18 10:52:34;;;;;;;26.80;25.30;;;;;;;15.35;62.22;101412.66;5026923;28;20021;-80
2022/09/18 10:55:06;;;;;;;25.95;24.55;;;;;;;15.37;62.14;101399.59;5039227;28;20044;-81
2022/09/18 10:57:48;;;;;;;27.50;26.10;;;;;;;15.38;61.74;101392.28;5041434;28;20042;-82
2022/09/18 11:00:20;;;;;;;27.58;25.77;;;;;;;15.39;62.16;101399.34;5032297;28;20060;-82
2022/09/18 11:02:59;;;;;;;26.08;24.67;;;;;;;15.40;62.22;101404.53;5045512;28;20038;-81
2022/09/18 11:05:25;;;;;;;26.00;24.63;;;;;;;15.41;62.10;101416.25;5062478;28;20037;-81
2022/09/18 11:07:56;;;;;;;25.98;24.58;;;;;;;15.42;61.69;101413.28;5024261;28;20036;-81
2022/09/18 11:10:24;;;;;;;25.85;24.45;;;;;;;15.43;61.99;101420.34;5033139;28;20033;-81
2022/09/18 11:12:56;;;;;;;26.38;25.13;;;;;;;15.45;61.67;101428.28;5040247;28;20044;-82
2022/09/18 11:15:24;;;;;;;26.65;25.20;;;;;;;15.46;61.71;101436.16;5031984;28;20037;-81
2022/09/18 11:17:55;;;;;;;25.92;24.52;;;;;;;15.48;61.76;101441.38;5041024;28;20039;-81
2022/09/18 11:20:30;;;;;;;25.80;24.02;;;;;;;15.50;61.75;101463.72;5039075;28;20033;-81
2022/09/18 11:23:15;;;;;;;26.63;25.23;;;;;;;15.49;61.34;101475.66;5033588;28;20038;-83
2022/09/18 11:25:41;;;;;;;26.63;25.23;;;;;;;15.50;61.60;101477.31;5031435;28;20389;-80
2022/09/18 11:28:26;;;;;;;26.02;24.73;;;;;;;15.49;61.60;101486.56;5013889;28;20478;-82